createdAt,value
2017-01-02T00:00:00.954Z,94.72
2017-01-02T00:00:22.929Z,94.76
2017-01-02T00:00:44.708Z,94.83
2017-01-02T00:01:06.472Z,94.78
2017-01-02T00:01:28.223Z,94.72
2017-01-02T00:01:49.980Z,94.68
2017-01-02T00:02:11.720Z,94.83
2017-01-02T00:02:33.470Z,94.91
2017-01-02T00:02:55.217Z,94.94
2017-01-02T00:03:26.488Z,95.07
2017-01-02T00:03:48.242Z,94.94
2017-01-02T00:04:09.979Z,94.94
2017-01-02T00:04:58.261Z,94.95
2017-01-02T00:05:21.001Z,95.00
2017-01-02T00:05:42.791Z,95.05
2017-01-02T00:06:04.567Z,95.06
2017-01-02T00:06:26.315Z,95.04
2017-01-02T00:06:48.260Z,95.04
2017-01-02T00:07:09.998Z,95.01
2017-01-02T00:07:31.767Z,94.94
2017-01-02T00:07:53.504Z,94.97
2017-01-02T00:08:15.271Z,95.00
2017-01-02T00:08:37.020Z,95.04
2017-01-02T00:08:58.914Z,95.04
2017-01-02T00:09:20.882Z,94.97
2017-01-02T00:09:42.849Z,94.89
2017-01-02T00:10:04.590Z,94.82
2017-01-02T00:10:27.342Z,94.85
2017-01-02T00:10:49.076Z,94.82
2017-01-02T00:11:11.026Z,94.80
2017-01-02T00:11:32.762Z,94.80
2017-01-02T00:11:59.277Z,94.87
2017-01-02T00:12:21.046Z,94.82
2017-01-02T00:12:43.807Z,94.84
2017-01-02T00:13:05.556Z,94.86
2017-01-02T00:13:27.287Z,94.95
2017-01-02T00:13:49.023Z,94.97
2017-01-02T00:14:15.580Z,94.96
2017-01-02T00:14:37.327Z,94.97
2017-01-02T00:14:59.066Z,94.98
2017-01-02T00:15:20.808Z,95.01
2017-01-02T00:15:43.569Z,94.94
2017-01-02T00:16:06.365Z,94.89
2017-01-02T00:16:32.884Z,94.92
2017-01-02T00:16:54.631Z,94.96
2017-01-02T00:17:16.361Z,94.92
2017-01-02T00:17:39.116Z,94.84
2017-01-02T00:18:00.860Z,94.77
2017-01-02T00:18:22.606Z,94.81
2017-01-02T00:18:44.347Z,94.84
2017-01-02T00:19:06.095Z,94.84
2017-01-02T00:19:27.860Z,94.82
2017-01-02T00:19:49.600Z,94.83
2017-01-02T00:20:11.337Z,94.83
2017-01-02T00:20:33.066Z,94.79
2017-01-02T00:20:54.811Z,94.80
2017-01-02T00:21:16.702Z,94.78
2017-01-02T00:21:39.578Z,94.82
2017-01-02T00:22:01.447Z,94.86
2017-01-02T00:22:27.950Z,94.83
2017-01-02T00:22:49.700Z,94.82
2017-01-02T00:23:11.439Z,94.80
2017-01-02T00:23:33.178Z,94.80
2017-01-02T00:23:54.935Z,94.76
2017-01-02T00:24:17.725Z,94.79
2017-01-02T00:24:39.773Z,94.80
2017-01-02T00:25:01.511Z,94.76
2017-01-02T00:25:23.277Z,94.71
2017-01-02T00:25:45.024Z,94.68
2017-01-02T00:26:06.761Z,94.62
2017-01-02T00:26:28.506Z,94.58
2017-01-02T00:26:50.247Z,94.59
2017-01-02T00:27:12.003Z,94.56
2017-01-02T00:27:33.760Z,94.58
2017-01-02T00:27:55.520Z,94.61
2017-01-02T00:28:17.268Z,94.64
2017-01-02T00:28:39.013Z,94.68
2017-01-02T00:29:00.746Z,94.68
2017-01-02T00:29:22.504Z,94.70
2017-01-02T00:29:44.245Z,94.68
2017-01-02T00:30:05.989Z,94.59
2017-01-02T00:30:27.731Z,94.60
2017-01-02T00:30:49.488Z,94.65
2017-01-02T00:31:11.243Z,94.72
2017-01-02T00:31:33.020Z,94.73
2017-01-02T00:31:54.771Z,94.78
2017-01-02T00:32:16.509Z,94.77
2017-01-02T00:32:39.274Z,94.74
2017-01-02T00:33:01.021Z,94.77
2017-01-02T00:33:22.763Z,94.75
2017-01-02T00:33:44.501Z,94.70
2017-01-02T00:34:06.251Z,94.66
2017-01-02T00:34:27.995Z,94.70
2017-01-02T00:34:49.799Z,94.74
2017-01-02T00:35:11.834Z,94.76
2017-01-02T00:35:34.992Z,94.72
2017-01-02T00:35:56.958Z,94.64
2017-01-02T00:36:19.982Z,94.68
2017-01-02T00:36:41.738Z,94.73
2017-01-02T00:37:03.523Z,94.69
2017-01-02T00:37:25.278Z,94.71
2017-01-02T00:37:47.034Z,94.69
2017-01-02T00:38:08.771Z,94.58
2017-01-02T00:38:30.520Z,94.51
2017-01-02T00:38:52.333Z,94.51
2017-01-02T00:39:14.078Z,94.50
2017-01-02T00:39:35.821Z,94.59
2017-01-02T00:39:57.573Z,94.62
2017-01-02T00:40:19.319Z,94.54
2017-01-02T00:40:41.056Z,94.50
2017-01-02T00:41:03.802Z,94.52
2017-01-02T00:41:25.552Z,94.54
2017-01-02T00:41:47.293Z,94.54
2017-01-02T00:42:09.043Z,94.57
2017-01-02T00:42:31.005Z,94.60
2017-01-02T00:43:19.293Z,94.65
2017-01-02T00:43:41.035Z,94.60
2017-01-02T00:44:03.802Z,94.61
2017-01-02T00:44:25.559Z,94.53
2017-01-02T00:44:47.318Z,94.47
2017-01-02T00:45:09.046Z,94.49
2017-01-02T00:45:30.794Z,94.40
2017-01-02T00:45:52.525Z,94.34
2017-01-02T00:46:14.301Z,94.39
2017-01-02T00:46:36.045Z,94.33
2017-01-02T00:46:57.786Z,94.38
2017-01-02T00:47:19.578Z,94.44
2017-01-02T00:47:41.334Z,94.43
2017-01-02T00:48:03.086Z,94.46
2017-01-02T00:48:24.835Z,94.42
2017-01-02T00:48:46.579Z,94.42
2017-01-02T00:49:08.329Z,94.42
2017-01-02T00:49:30.282Z,94.41
2017-01-02T00:49:51.895Z,94.39
2017-01-02T00:50:13.642Z,94.44
2017-01-02T00:50:35.371Z,94.48
2017-01-02T00:50:57.114Z,94.44
2017-01-02T00:51:18.850Z,94.53
2017-01-02T00:51:40.598Z,94.56
2017-01-02T00:52:02.339Z,94.51
2017-01-02T00:52:24.078Z,94.46
2017-01-02T00:52:45.835Z,94.51
2017-01-02T00:53:08.576Z,94.50
2017-01-02T00:53:30.331Z,94.52
2017-01-02T00:53:52.073Z,94.56
2017-01-02T00:54:13.800Z,94.64
2017-01-02T00:54:40.317Z,94.68
2017-01-02T00:55:02.070Z,94.73
2017-01-02T00:55:23.910Z,94.76
2017-01-02T00:55:45.659Z,94.81
2017-01-02T00:56:08.391Z,94.72
2017-01-02T00:56:30.155Z,94.73
2017-01-02T00:56:51.891Z,94.76
2017-01-02T00:57:13.629Z,94.79
2017-01-02T00:57:35.387Z,94.82
2017-01-02T00:57:57.135Z,94.73
2017-01-02T00:58:18.860Z,94.72
2017-01-02T00:58:40.608Z,94.71
2017-01-02T00:59:02.353Z,94.67
2017-01-02T00:59:24.112Z,94.64
2017-01-02T00:59:50.636Z,94.61
2017-01-02T01:00:12.393Z,94.59
2017-01-02T01:00:34.170Z,94.66
2017-01-02T01:00:55.915Z,94.66
2017-01-02T01:01:22.458Z,94.59
2017-01-02T01:01:44.201Z,94.59
2017-01-02T01:02:05.945Z,94.63
2017-01-02T01:02:54.224Z,94.69
2017-01-02T01:03:15.983Z,94.69
2017-01-02T01:03:37.852Z,94.65
2017-01-02T01:03:59.586Z,94.60
2017-01-02T01:04:21.334Z,94.59
2017-01-02T01:04:43.078Z,94.63
2017-01-02T01:05:04.832Z,94.69
2017-01-02T01:05:31.334Z,94.79
2017-01-02T01:05:53.068Z,94.88
2017-01-02T01:06:16.828Z,94.75
2017-01-02T01:06:38.579Z,94.57
2017-01-02T01:07:06.252Z,94.67
2017-01-02T01:07:28.484Z,94.84
2017-01-02T01:07:50.255Z,94.81
2017-01-02T01:08:12.988Z,94.88
2017-01-02T01:08:34.736Z,94.86
2017-01-02T01:08:56.486Z,94.78
2017-01-02T01:09:18.224Z,94.81
2017-01-02T01:09:44.739Z,94.80
2017-01-02T01:10:06.512Z,94.83
2017-01-02T01:10:28.276Z,94.79
2017-01-02T01:10:50.026Z,94.77
2017-01-02T01:11:11.778Z,94.88
2017-01-02T01:11:33.590Z,94.80
2017-01-02T01:11:55.337Z,94.78
2017-01-02T01:12:17.081Z,94.76
2017-01-02T01:12:38.829Z,94.81
2017-01-02T01:13:05.342Z,94.86
2017-01-02T01:13:36.614Z,94.77
2017-01-02T01:13:58.355Z,94.80
2017-01-02T01:14:20.097Z,94.89
2017-01-02T01:14:41.974Z,94.93
2017-01-02T01:15:05.043Z,94.95
2017-01-02T01:15:26.959Z,94.89
2017-01-02T01:15:48.703Z,94.84
2017-01-02T01:16:10.451Z,94.79
2017-01-02T01:16:32.230Z,94.74
2017-01-02T01:16:53.968Z,94.81
2017-01-02T01:17:16.699Z,94.84
2017-01-02T01:17:38.438Z,94.80
2017-01-02T01:18:00.185Z,94.82
2017-01-02T01:18:21.932Z,94.79
2017-01-02T01:18:48.445Z,94.80
2017-01-02T01:19:10.188Z,94.78
2017-01-02T01:19:31.946Z,94.80
2017-01-02T01:19:53.682Z,94.82
2017-01-02T01:20:15.420Z,94.81
2017-01-02T01:20:37.193Z,94.82
2017-01-02T01:20:58.947Z,94.84
2017-01-02T01:21:21.730Z,94.80
2017-01-02T01:21:43.467Z,94.68
2017-01-02T01:22:05.209Z,94.72
2017-01-02T01:22:27.093Z,94.82
2017-01-02T01:22:48.780Z,94.91
2017-01-02T01:23:10.526Z,94.88
2017-01-02T01:23:32.261Z,94.79
2017-01-02T01:23:54.008Z,94.72
2017-01-02T01:24:15.751Z,94.81
2017-01-02T01:24:37.498Z,94.87
2017-01-02T01:24:59.270Z,94.85
2017-01-02T01:25:21.007Z,94.80
2017-01-02T01:25:42.751Z,94.86
2017-01-02T01:26:04.589Z,94.85
2017-01-02T01:26:26.608Z,94.85
2017-01-02T01:26:48.360Z,94.82
2017-01-02T01:27:10.222Z,94.80
2017-01-02T01:27:31.967Z,94.71
2017-01-02T01:27:53.698Z,94.81
2017-01-02T01:28:15.456Z,94.82
2017-01-02T01:28:37.183Z,94.86
2017-01-02T01:28:58.950Z,94.94
2017-01-02T01:29:20.690Z,94.94
2017-01-02T01:29:43.430Z,95.02
2017-01-02T01:30:08.028Z,95.06
2017-01-02T01:30:29.769Z,94.98
2017-01-02T01:30:51.540Z,94.93
2017-01-02T01:31:13.291Z,94.94
2017-01-02T01:31:35.040Z,94.90
2017-01-02T01:31:56.779Z,94.94
2017-01-02T01:32:18.524Z,94.97
2017-01-02T01:32:40.262Z,94.97
2017-01-02T01:33:02.007Z,94.91
2017-01-02T01:33:23.759Z,94.92
2017-01-02T01:33:45.503Z,94.94
2017-01-02T01:34:07.240Z,94.88
2017-01-02T01:34:28.997Z,94.86
2017-01-02T01:34:51.740Z,94.92
2017-01-02T01:35:13.488Z,94.94
2017-01-02T01:35:35.231Z,95.00
2017-01-02T01:35:56.989Z,94.94
2017-01-02T01:36:18.745Z,94.87
2017-01-02T01:36:40.492Z,95.04
2017-01-02T01:37:07.002Z,95.10
2017-01-02T01:37:29.743Z,95.03
2017-01-02T01:37:51.669Z,95.04
2017-01-02T01:38:13.411Z,95.00
2017-01-02T01:38:36.181Z,95.01
2017-01-02T01:38:58.169Z,94.80
2017-01-02T01:39:19.929Z,94.78
2017-01-02T01:39:42.673Z,94.89
2017-01-02T01:40:04.422Z,94.93
2017-01-02T01:40:34.437Z,94.90
2017-01-02T01:40:57.178Z,94.80
2017-01-02T01:41:18.924Z,94.86
2017-01-02T01:41:40.681Z,94.98
2017-01-02T01:42:02.569Z,94.96
2017-01-02T01:42:24.303Z,94.83
2017-01-02T01:42:46.041Z,94.85
2017-01-02T01:43:07.791Z,94.83
2017-01-02T01:43:29.541Z,94.86
2017-01-02T01:43:51.380Z,94.92
2017-01-02T01:44:13.237Z,94.94
2017-01-02T01:44:35.343Z,94.96
2017-01-02T01:44:57.600Z,94.92
2017-01-02T01:45:19.437Z,94.84
2017-01-02T01:45:41.179Z,94.93
2017-01-02T01:46:02.920Z,94.91
2017-01-02T01:46:24.665Z,94.89
2017-01-02T01:46:46.410Z,94.91
2017-01-02T01:47:08.144Z,94.83
2017-01-02T01:47:29.901Z,94.84
2017-01-02T01:47:51.653Z,94.86
2017-01-02T01:48:13.666Z,94.84
2017-01-02T01:48:35.430Z,94.77
2017-01-02T01:48:57.183Z,94.79
2017-01-02T01:49:21.884Z,94.88
2017-01-02T01:49:43.615Z,94.96
2017-01-02T01:50:05.378Z,94.99
2017-01-02T01:50:53.633Z,95.04
2017-01-02T01:51:15.577Z,95.03
2017-01-02T01:51:37.420Z,95.01
2017-01-02T01:52:00.373Z,94.97
2017-01-02T01:52:22.553Z,94.97
2017-01-02T01:52:44.580Z,94.95
2017-01-02T01:53:06.405Z,95.00
2017-01-02T01:53:28.400Z,94.99
2017-01-02T01:53:50.321Z,94.93
2017-01-02T01:54:12.201Z,94.92
2017-01-02T01:54:34.034Z,94.93
2017-01-02T01:54:55.825Z,94.96
2017-01-02T01:55:17.921Z,94.83
2017-01-02T01:55:39.841Z,94.75
2017-01-02T01:56:01.593Z,94.78
2017-01-02T01:56:23.321Z,94.78
2017-01-02T01:56:45.066Z,94.80
2017-01-02T01:57:06.806Z,94.79
2017-01-02T01:57:28.566Z,94.84
2017-01-02T01:57:50.511Z,94.82
2017-01-02T01:58:12.276Z,94.78
2017-01-02T01:58:34.172Z,94.79
2017-01-02T01:58:56.161Z,94.83
2017-01-02T01:59:17.780Z,94.78
2017-01-02T01:59:39.532Z,94.81
2017-01-02T02:00:01.391Z,94.82
2017-01-02T02:00:23.136Z,94.83
2017-01-02T02:00:49.641Z,94.83
2017-01-02T02:01:12.379Z,94.69
2017-01-02T02:01:34.138Z,94.64
2017-01-02T02:01:55.874Z,94.70
2017-01-02T02:02:17.650Z,94.74
2017-01-02T02:02:40.380Z,94.76
2017-01-02T02:03:02.127Z,94.63
2017-01-02T02:03:23.879Z,94.67
2017-01-02T02:03:45.618Z,94.67
2017-01-02T02:04:07.368Z,94.64
2017-01-02T02:04:29.113Z,94.69
2017-01-02T02:04:50.855Z,94.74
2017-01-02T02:05:12.602Z,94.66
2017-01-02T02:05:34.337Z,94.66
2017-01-02T02:05:56.092Z,94.70
2017-01-02T02:06:18.841Z,94.81
2017-01-02T02:06:40.601Z,94.75
2017-01-02T02:07:02.567Z,94.62
2017-01-02T02:07:24.633Z,94.67
2017-01-02T02:07:46.379Z,94.63
2017-01-02T02:08:08.450Z,94.65
2017-01-02T02:08:30.308Z,94.74
2017-01-02T02:08:52.369Z,94.88
2017-01-02T02:09:14.164Z,94.79
2017-01-02T02:09:35.900Z,94.68
2017-01-02T02:09:57.694Z,94.72
2017-01-02T02:10:19.456Z,94.68
2017-01-02T02:10:41.179Z,94.74
2017-01-02T02:11:03.093Z,94.82
2017-01-02T02:11:25.111Z,94.80
2017-01-02T02:11:47.263Z,94.71
2017-01-02T02:12:09.212Z,94.64
2017-01-02T02:12:31.200Z,94.63
2017-01-02T02:13:19.681Z,94.80
2017-01-02T02:13:41.430Z,94.89
2017-01-02T02:14:03.334Z,95.00
2017-01-02T02:14:25.116Z,95.01
2017-01-02T02:14:46.864Z,95.02
2017-01-02T02:15:08.611Z,94.99
2017-01-02T02:15:30.348Z,94.91
2017-01-02T02:15:52.131Z,94.93
2017-01-02T02:16:13.894Z,94.87
2017-01-02T02:16:35.776Z,94.78
2017-01-02T02:16:57.529Z,94.75
2017-01-02T02:17:19.731Z,94.91
2017-01-02T02:17:41.459Z,95.01
2017-01-02T02:18:04.412Z,95.07
2017-01-02T02:18:26.150Z,95.12
2017-01-02T02:18:47.916Z,95.18
2017-01-02T02:19:09.652Z,95.24
2017-01-02T02:19:31.400Z,95.25
2017-01-02T02:19:53.190Z,95.13
2017-01-02T02:20:14.925Z,94.99
2017-01-02T02:20:36.665Z,94.92
2017-01-02T02:20:58.441Z,95.04
2017-01-02T02:21:20.189Z,94.86
2017-01-02T02:21:41.935Z,94.77
2017-01-02T02:22:03.674Z,94.76
2017-01-02T02:22:26.457Z,94.67
2017-01-02T02:22:48.387Z,94.69
2017-01-02T02:23:10.137Z,94.69
2017-01-02T02:23:31.894Z,94.71
2017-01-02T02:23:53.626Z,94.77
2017-01-02T02:24:15.425Z,94.65
2017-01-02T02:24:37.172Z,94.63
2017-01-02T02:24:58.919Z,94.72
2017-01-02T02:25:20.681Z,94.79
2017-01-02T02:25:42.436Z,94.82
2017-01-02T02:26:04.270Z,94.88
2017-01-02T02:26:26.075Z,94.99
2017-01-02T02:26:47.885Z,94.90
2017-01-02T02:27:09.622Z,94.88
2017-01-02T02:27:31.366Z,94.93
2017-01-02T02:27:53.093Z,95.00
2017-01-02T02:28:19.612Z,95.21
2017-01-02T02:28:41.374Z,95.14
2017-01-02T02:29:03.132Z,95.12
2017-01-02T02:29:24.906Z,95.04
2017-01-02T02:29:46.655Z,94.87
2017-01-02T02:30:09.396Z,94.89
2017-01-02T02:30:31.145Z,95.01
2017-01-02T02:30:52.897Z,94.91
2017-01-02T02:31:14.640Z,94.93
2017-01-02T02:31:36.387Z,94.94
2017-01-02T02:31:58.125Z,94.89
2017-01-02T02:32:20.886Z,94.93
2017-01-02T02:32:42.627Z,94.99
2017-01-02T02:33:09.147Z,95.08
2017-01-02T02:33:30.891Z,95.17
2017-01-02T02:33:52.620Z,95.08
2017-01-02T02:34:19.131Z,95.20
2017-01-02T02:34:40.884Z,95.18
2017-01-02T02:35:02.651Z,95.15
2017-01-02T02:35:24.401Z,95.10
2017-01-02T02:35:46.161Z,95.09
2017-01-02T02:36:07.910Z,95.09
2017-01-02T02:36:29.652Z,95.11
2017-01-02T02:36:51.395Z,95.07
2017-01-02T02:37:13.131Z,95.15
2017-01-02T02:37:34.886Z,95.08
2017-01-02T02:37:57.614Z,95.03
2017-01-02T02:38:19.356Z,95.04
2017-01-02T02:38:41.099Z,95.17
2017-01-02T02:39:02.838Z,95.17
2017-01-02T02:39:24.573Z,95.06
2017-01-02T02:39:46.317Z,94.97
2017-01-02T02:40:10.070Z,94.98
2017-01-02T02:40:31.801Z,95.02
2017-01-02T02:40:53.544Z,95.03
2017-01-02T02:41:20.083Z,95.05
2017-01-02T02:41:42.829Z,95.15
2017-01-02T02:42:04.582Z,95.18
2017-01-02T02:42:26.344Z,95.23
2017-01-02T02:42:48.081Z,95.16
2017-01-02T02:43:09.845Z,95.11
2017-01-02T02:43:31.587Z,95.14
2017-01-02T02:43:58.096Z,95.15
2017-01-02T02:44:19.853Z,95.14
2017-01-02T02:44:41.600Z,95.22
2017-01-02T02:45:04.342Z,95.18
2017-01-02T02:45:26.128Z,95.20
2017-01-02T02:45:47.873Z,95.17
2017-01-02T02:46:09.614Z,95.18
2017-01-02T02:46:31.351Z,95.18
2017-01-02T02:46:53.098Z,95.08
2017-01-02T02:47:14.841Z,95.09
2017-01-02T02:47:36.592Z,95.17
2017-01-02T02:47:58.329Z,95.19
2017-01-02T02:48:20.070Z,95.21
2017-01-02T02:48:41.814Z,95.23
2017-01-02T02:49:03.581Z,95.23
2017-01-02T02:49:25.329Z,95.23
2017-01-02T02:49:47.070Z,95.27
2017-01-02T02:50:08.810Z,95.20
2017-01-02T02:50:30.561Z,95.06
2017-01-02T02:50:52.320Z,94.95
2017-01-02T02:51:14.209Z,95.06
2017-01-02T02:51:36.227Z,95.06
2017-01-02T02:51:58.178Z,94.95
2017-01-02T02:52:19.987Z,94.95
2017-01-02T02:52:41.764Z,95.04
2017-01-02T02:53:03.635Z,95.04
2017-01-02T02:53:25.829Z,95.03
2017-01-02T02:53:47.578Z,95.04
2017-01-02T02:54:09.315Z,95.02
2017-01-02T02:54:31.061Z,95.14
2017-01-02T02:54:57.765Z,95.15
2017-01-02T02:55:19.505Z,95.13
2017-01-02T02:55:41.265Z,95.08
2017-01-02T02:56:03.014Z,95.09
2017-01-02T02:56:24.749Z,95.09
2017-01-02T02:56:46.505Z,95.09
2017-01-02T02:57:09.250Z,95.22
2017-01-02T02:57:30.992Z,95.23
2017-01-02T02:57:52.733Z,95.34
2017-01-02T02:58:14.662Z,95.28
2017-01-02T02:58:41.289Z,95.33
2017-01-02T02:59:03.050Z,95.27
2017-01-02T02:59:29.549Z,95.34
2017-01-02T02:59:51.289Z,95.34
2017-01-02T03:00:13.031Z,95.35
2017-01-02T03:00:34.768Z,95.40
2017-01-02T03:00:56.522Z,95.41
2017-01-02T03:01:18.410Z,95.33
2017-01-02T03:01:40.029Z,95.32
2017-01-02T03:02:01.790Z,95.29
2017-01-02T03:02:23.530Z,95.32
2017-01-02T03:02:45.277Z,95.38
2017-01-02T03:03:07.043Z,95.46
2017-01-02T03:03:28.800Z,95.41
2017-01-02T03:03:50.551Z,95.26
2017-01-02T03:04:12.354Z,95.24
2017-01-02T03:04:34.353Z,95.24
2017-01-02T03:04:56.158Z,95.31
2017-01-02T03:05:17.908Z,95.31
2017-01-02T03:05:39.652Z,95.35
2017-01-02T03:06:01.539Z,95.33
2017-01-02T03:06:23.591Z,95.36
2017-01-02T03:06:45.320Z,95.44
2017-01-02T03:07:07.098Z,95.45
2017-01-02T03:07:28.849Z,95.31
2017-01-02T03:07:50.595Z,95.26
2017-01-02T03:08:12.347Z,95.16
2017-01-02T03:08:34.093Z,95.18
2017-01-02T03:08:55.827Z,95.25
2017-01-02T03:09:17.595Z,95.21
2017-01-02T03:09:44.118Z,95.07
2017-01-02T03:10:06.855Z,95.13
2017-01-02T03:10:28.592Z,95.04
2017-01-02T03:10:50.360Z,95.05
2017-01-02T03:11:12.567Z,95.09
2017-01-02T03:11:34.395Z,95.13
2017-01-02T03:11:56.146Z,95.11
2017-01-02T03:12:22.644Z,95.06
2017-01-02T03:12:44.545Z,95.10
2017-01-02T03:13:06.280Z,95.01
2017-01-02T03:13:28.021Z,94.94
2017-01-02T03:13:49.755Z,94.99
2017-01-02T03:14:11.511Z,94.98
2017-01-02T03:14:33.434Z,95.00
2017-01-02T03:15:21.902Z,95.09
2017-01-02T03:15:44.061Z,95.08
2017-01-02T03:16:06.790Z,95.03
2017-01-02T03:16:28.531Z,95.01
2017-01-02T03:16:50.303Z,94.96
2017-01-02T03:17:12.053Z,94.94
2017-01-02T03:17:33.806Z,94.99
2017-01-02T03:17:56.556Z,95.07
2017-01-02T03:18:24.051Z,95.12
2017-01-02T03:18:46.795Z,95.06
2017-01-02T03:19:08.523Z,95.07
2017-01-02T03:19:30.272Z,94.98
2017-01-02T03:19:52.011Z,94.99
2017-01-02T03:20:13.767Z,94.89
2017-01-02T03:20:35.508Z,94.93
2017-01-02T03:20:57.245Z,94.85
2017-01-02T03:21:19.124Z,94.88
2017-01-02T03:21:41.046Z,94.89
2017-01-02T03:22:02.839Z,94.96
2017-01-02T03:22:24.580Z,94.92
2017-01-02T03:22:46.336Z,94.88
2017-01-02T03:23:08.073Z,94.85
2017-01-02T03:23:30.826Z,94.99
2017-01-02T03:23:57.329Z,95.01
2017-01-02T03:24:19.060Z,95.02
2017-01-02T03:24:40.826Z,95.00
2017-01-02T03:25:02.552Z,94.96
2017-01-02T03:25:25.315Z,95.01
2017-01-02T03:25:47.266Z,95.11
2017-01-02T03:26:09.325Z,95.15
2017-01-02T03:26:31.271Z,95.11
2017-01-02T03:26:53.040Z,95.11
2017-01-02T03:27:14.753Z,95.10
2017-01-02T03:27:36.505Z,95.03
2017-01-02T03:27:58.269Z,95.03
2017-01-02T03:28:20.653Z,95.02
2017-01-02T03:28:42.404Z,95.05
2017-01-02T03:29:08.954Z,95.15
2017-01-02T03:29:31.696Z,95.14
2017-01-02T03:29:53.455Z,95.10
2017-01-02T03:30:19.971Z,95.06
2017-01-02T03:30:41.722Z,95.06
2017-01-02T03:31:04.472Z,95.14
2017-01-02T03:31:26.211Z,95.19
2017-01-02T03:31:47.951Z,95.27
2017-01-02T03:32:10.692Z,95.23
2017-01-02T03:32:32.432Z,95.15
2017-01-02T03:32:54.180Z,95.24
2017-01-02T03:33:15.938Z,95.29
2017-01-02T03:33:37.691Z,95.26
2017-01-02T03:33:59.435Z,95.19
2017-01-02T03:34:21.194Z,95.13
2017-01-02T03:34:52.468Z,95.16
2017-01-02T03:35:14.211Z,95.17
2017-01-02T03:35:35.959Z,95.12
2017-01-02T03:35:57.697Z,95.09
2017-01-02T03:36:19.446Z,95.16
2017-01-02T03:36:41.197Z,95.22
2017-01-02T03:37:07.719Z,95.23
2017-01-02T03:37:29.467Z,95.30
2017-01-02T03:37:51.210Z,95.34
2017-01-02T03:38:12.966Z,95.40
2017-01-02T03:38:34.711Z,95.36
2017-01-02T03:38:56.458Z,95.36
2017-01-02T03:39:18.197Z,95.39
2017-01-02T03:39:39.944Z,95.41
2017-01-02T03:40:01.686Z,95.40
2017-01-02T03:40:23.444Z,95.49
2017-01-02T03:40:45.187Z,95.51
2017-01-02T03:41:06.935Z,95.54
2017-01-02T03:41:28.707Z,95.56
2017-01-02T03:41:50.432Z,95.61
2017-01-02T03:42:13.171Z,95.54
2017-01-02T03:42:34.912Z,95.60
2017-01-02T03:42:56.659Z,95.60
2017-01-02T03:43:18.392Z,95.65
2017-01-02T03:43:40.273Z,95.63
2017-01-02T03:44:28.418Z,95.60
2017-01-02T03:44:54.989Z,95.69
2017-01-02T03:45:16.733Z,95.65
2017-01-02T03:45:38.470Z,95.65
2017-01-02T03:46:00.221Z,95.67
2017-01-02T03:46:21.957Z,95.62
2017-01-02T03:46:43.699Z,95.67
2017-01-02T03:47:05.450Z,95.71
2017-01-02T03:47:27.200Z,95.68
2017-01-02T03:47:48.941Z,95.71
2017-01-02T03:48:10.679Z,95.78
2017-01-02T03:48:32.484Z,95.76
2017-01-02T03:48:54.229Z,95.72
2017-01-02T03:49:16.083Z,95.66
2017-01-02T03:49:37.815Z,95.60
2017-01-02T03:49:59.561Z,95.59
2017-01-02T03:50:21.291Z,95.65
2017-01-02T03:50:43.038Z,95.82
2017-01-02T03:51:04.913Z,95.82
2017-01-02T03:51:26.657Z,95.84
2017-01-02T03:51:48.400Z,95.87
2017-01-02T03:52:10.133Z,95.84
2017-01-02T03:52:32.014Z,95.86
2017-01-02T03:52:54.307Z,95.81
2017-01-02T03:53:16.228Z,95.76
2017-01-02T03:53:37.997Z,95.77
2017-01-02T03:54:04.717Z,95.78
2017-01-02T03:54:26.832Z,95.83
2017-01-02T03:54:48.834Z,95.85
2017-01-02T03:55:10.576Z,95.82
2017-01-02T03:55:32.317Z,95.87
2017-01-02T03:55:55.053Z,95.87
2017-01-02T03:56:16.813Z,95.87
2017-01-02T03:56:38.549Z,95.83
2017-01-02T03:57:01.306Z,95.77
2017-01-02T03:57:23.046Z,95.86
2017-01-02T03:57:44.928Z,95.94
2017-01-02T03:58:06.672Z,95.94
2017-01-02T03:58:28.426Z,95.85
2017-01-02T03:58:50.166Z,95.83
2017-01-02T03:59:11.901Z,95.88
2017-01-02T03:59:33.648Z,95.89
2017-01-02T03:59:55.395Z,95.95
2017-01-02T04:00:18.155Z,95.97
2017-01-02T04:00:39.889Z,95.97
2017-01-02T04:01:06.399Z,95.95
2017-01-02T04:01:28.150Z,95.94
2017-01-02T04:01:50.086Z,95.95
2017-01-02T04:02:11.824Z,95.87
2017-01-02T04:02:35.770Z,95.81
2017-01-02T04:02:57.514Z,95.81
2017-01-02T04:03:19.251Z,95.83
2017-01-02T04:03:41.393Z,95.77
2017-01-02T04:04:03.239Z,95.75
2017-01-02T04:04:25.021Z,95.78
2017-01-02T04:04:46.762Z,95.82
2017-01-02T04:05:08.510Z,96.02
2017-01-02T04:05:30.259Z,96.04
2017-01-02T04:05:52.009Z,96.06
2017-01-02T04:06:13.760Z,95.98
2017-01-02T04:06:35.591Z,95.90
2017-01-02T04:06:57.336Z,96.03
2017-01-02T04:07:19.079Z,96.12
2017-01-02T04:07:40.827Z,96.13
2017-01-02T04:08:02.564Z,96.09
2017-01-02T04:08:24.300Z,96.15
2017-01-02T04:08:46.050Z,96.24
2017-01-02T04:09:07.843Z,96.26
2017-01-02T04:09:29.593Z,96.28
2017-01-02T04:09:54.086Z,96.24
2017-01-02T04:10:15.839Z,96.19
2017-01-02T04:10:37.580Z,96.16
2017-01-02T04:10:59.323Z,96.17
2017-01-02T04:11:21.081Z,96.21
2017-01-02T04:11:42.820Z,96.18
2017-01-02T04:12:04.563Z,96.19
2017-01-02T04:12:27.299Z,96.17
2017-01-02T04:12:49.030Z,96.09
2017-01-02T04:13:10.764Z,96.12
2017-01-02T04:13:32.524Z,96.17
2017-01-02T04:13:54.259Z,96.24
2017-01-02T04:14:16.122Z,96.19
2017-01-02T04:14:37.858Z,96.21
2017-01-02T04:14:59.599Z,96.22
2017-01-02T04:15:21.340Z,96.18
2017-01-02T04:15:43.092Z,96.20
2017-01-02T04:16:04.828Z,96.18
2017-01-02T04:16:26.586Z,96.07
2017-01-02T04:16:48.351Z,96.04
2017-01-02T04:17:10.202Z,96.11
2017-01-02T04:17:31.943Z,96.15
2017-01-02T04:17:53.684Z,96.19
2017-01-02T04:18:15.445Z,96.17
2017-01-02T04:18:37.290Z,96.17
2017-01-02T04:18:59.368Z,96.17
2017-01-02T04:19:21.267Z,96.17
2017-01-02T04:19:43.388Z,96.26
2017-01-02T04:20:05.353Z,96.33
2017-01-02T04:20:27.318Z,96.28
2017-01-02T04:20:54.138Z,96.28
2017-01-02T04:21:16.060Z,96.26
2017-01-02T04:21:38.394Z,96.29
2017-01-02T04:22:00.371Z,96.27
2017-01-02T04:22:22.300Z,96.21
2017-01-02T04:22:44.316Z,96.38
2017-01-02T04:23:06.422Z,96.36
2017-01-02T04:23:28.362Z,96.36
2017-01-02T04:23:50.556Z,96.35
2017-01-02T04:24:12.296Z,96.34
2017-01-02T04:24:34.055Z,96.35
2017-01-02T04:24:55.789Z,96.35
2017-01-02T04:25:17.535Z,96.42
2017-01-02T04:25:39.282Z,96.43
2017-01-02T04:26:01.008Z,96.48
2017-01-02T04:26:22.762Z,96.50
2017-01-02T04:26:44.500Z,96.50
2017-01-02T04:27:06.236Z,96.43
2017-01-02T04:27:27.980Z,96.45
2017-01-02T04:27:49.717Z,96.45
2017-01-02T04:28:11.459Z,96.49
2017-01-02T04:28:33.433Z,96.50
2017-01-02T04:28:55.511Z,96.52
2017-01-02T04:29:17.719Z,96.52
2017-01-02T04:29:39.740Z,96.51
2017-01-02T04:30:01.480Z,96.50
2017-01-02T04:30:23.218Z,96.46
2017-01-02T04:30:45.064Z,96.56
2017-01-02T04:31:06.812Z,96.61
2017-01-02T04:31:28.553Z,96.65
2017-01-02T04:31:50.526Z,96.67
2017-01-02T04:32:12.325Z,96.66
2017-01-02T04:32:34.215Z,96.58
2017-01-02T04:32:56.271Z,96.51
2017-01-02T04:33:18.224Z,96.42
2017-01-02T04:33:40.273Z,96.48
2017-01-02T04:34:03.009Z,96.53
2017-01-02T04:34:24.741Z,96.52
2017-01-02T04:34:46.512Z,96.52
2017-01-02T04:35:08.325Z,96.50
2017-01-02T04:35:30.064Z,96.51
2017-01-02T04:35:51.810Z,96.58
2017-01-02T04:36:13.549Z,96.64
2017-01-02T04:36:35.283Z,96.69
2017-01-02T04:36:57.023Z,96.69
2017-01-02T04:37:18.777Z,96.72
2017-01-02T04:37:40.519Z,96.69
2017-01-02T04:38:02.271Z,96.72
2017-01-02T04:38:24.015Z,96.68
2017-01-02T04:38:45.755Z,96.65
2017-01-02T04:39:07.486Z,96.70
2017-01-02T04:39:29.283Z,96.64
2017-01-02T04:39:51.026Z,96.71
2017-01-02T04:40:12.775Z,96.67
2017-01-02T04:40:34.514Z,96.71
2017-01-02T04:40:56.278Z,96.67
2017-01-02T04:41:18.019Z,96.69
2017-01-02T04:41:39.744Z,96.67
2017-01-02T04:42:01.480Z,96.75
2017-01-02T04:42:23.228Z,96.78
2017-01-02T04:42:45.139Z,96.72
2017-01-02T04:43:06.885Z,96.69
2017-01-02T04:43:28.621Z,96.68
2017-01-02T04:43:50.443Z,96.69
2017-01-02T04:44:12.191Z,96.73
2017-01-02T04:44:38.687Z,96.75
2017-01-02T04:45:00.446Z,96.80
2017-01-02T04:45:22.181Z,96.79
2017-01-02T04:45:43.934Z,96.79
2017-01-02T04:46:05.775Z,96.80
2017-01-02T04:46:27.733Z,96.79
2017-01-02T04:46:49.468Z,96.75
2017-01-02T04:47:11.211Z,96.87
2017-01-02T04:47:32.952Z,96.83
2017-01-02T04:47:54.711Z,96.75